sensor_id;sensor_type;location;lat;lon;timestamp;P1;durP1;ratioP1;P2;durP2;ratioP2
66870;SDS011;53780;44.998;9.926;2023-03-23T00:03:01;18.50;;;8.18;;
66870;SDS011;53780;44.998;9.926;2023-03-23T00:06:05;17.97;;;8.60;;
66870;SDS011;53780;44.998;9.926;2023-03-23T00:09:09;22.88;;;8.88;;
66870;SDS011;53780;44.998;9.926;2023-03-23T00:12:13;21.35;;;8.13;;
66870;SDS011;53780;44.998;9.926;2023-03-23T00:15:18;30.10;;;8.50;;
66870;SDS011;53780;44.998;9.926;2023-03-23T00:18:22;12.57;;;5.30;;
66870;SDS011;53780;44.998;9.926;2023-03-23T00:21:28;11.93;;;5.10;;
66870;SDS011;53780;44.998;9.926;2023-03-23T00:24:37;14.30;;;5.55;;
66870;SDS011;53780;44.998;9.926;2023-03-23T00:27:41;14.50;;;5.18;;
66870;SDS011;53780;44.998;9.926;2023-03-23T00:30:47;19.75;;;6.10;;
66870;SDS011;53780;44.998;9.926;2023-03-23T00:33:51;15.02;;;5.80;;
66870;SDS011;53780;44.998;9.926;2023-03-23T00:36:57;20.27;;;7.47;;
66870;SDS011;53780;44.998;9.926;2023-03-23T00:40:01;24.40;;;8.50;;
66870;SDS011;53780;44.998;9.926;2023-03-23T00:43:14;24.83;;;8.45;;
66870;SDS011;53780;44.998;9.926;2023-03-23T00:46:19;18.77;;;6.53;;
66870;SDS011;53780;44.998;9.926;2023-03-23T00:49:25;10.20;;;4.97;;
66870;SDS011;53780;44.998;9.926;2023-03-23T00:52:30;10.47;;;4.90;;
66870;SDS011;53780;44.998;9.926;2023-03-23T00:55:33;9.30;;;4.82;;
66870;SDS011;53780;44.998;9.926;2023-03-23T00:58:37;10.00;;;4.90;;
66870;SDS011;53780;44.998;9.926;2023-03-23T01:01:41;9.35;;;4.72;;
66870;SDS011;53780;44.998;9.926;2023-03-23T01:04:45;8.30;;;4.43;;
66870;SDS011;53780;44.998;9.926;2023-03-23T01:07:50;9.07;;;4.83;;
66870;SDS011;53780;44.998;9.926;2023-03-23T01:11:00;8.68;;;4.35;;
66870;SDS011;53780;44.998;9.926;2023-03-23T01:14:07;12.82;;;5.55;;
66870;SDS011;53780;44.998;9.926;2023-03-23T01:17:11;24.50;;;9.38;;
66870;SDS011;53780;44.998;9.926;2023-03-23T01:20:15;13.43;;;5.07;;
66870;SDS011;53780;44.998;9.926;2023-03-23T01:23:19;15.23;;;5.73;;
66870;SDS011;53780;44.998;9.926;2023-03-23T01:26:24;22.17;;;7.75;;
66870;SDS011;53780;44.998;9.926;2023-03-23T01:29:30;19.88;;;6.55;;
66870;SDS011;53780;44.998;9.926;2023-03-23T01:32:34;13.75;;;5.30;;
66870;SDS011;53780;44.998;9.926;2023-03-23T01:35:39;7.72;;;3.08;;
66870;SDS011;53780;44.998;9.926;2023-03-23T01:38:44;18.53;;;6.37;;
66870;SDS011;53780;44.998;9.926;2023-03-23T01:41:48;28.35;;;10.35;;
66870;SDS011;53780;44.998;9.926;2023-03-23T01:48:33;9.43;;;3.85;;
66870;SDS011;53780;44.998;9.926;2023-03-23T01:51:41;11.25;;;4.40;;
66870;SDS011;53780;44.998;9.926;2023-03-23T01:54:50;8.73;;;4.13;;
66870;SDS011;53780;44.998;9.926;2023-03-23T01:57:58;9.02;;;4.20;;
66870;SDS011;53780;44.998;9.926;2023-03-23T02:01:07;9.15;;;4.40;;
66870;SDS011;53780;44.998;9.926;2023-03-23T02:04:15;8.93;;;4.57;;
66870;SDS011;53780;44.998;9.926;2023-03-23T02:07:21;11.05;;;4.43;;
66870;SDS011;53780;44.998;9.926;2023-03-23T02:10:27;10.10;;;5.10;;
66870;SDS011;53780;44.998;9.926;2023-03-23T02:13:31;9.52;;;4.78;;
66870;SDS011;53780;44.998;9.926;2023-03-23T02:16:46;8.98;;;4.30;;
66870;SDS011;53780;44.998;9.926;2023-03-23T02:27:05;12.53;;;5.00;;
66870;SDS011;53780;44.998;9.926;2023-03-23T02:36:59;16.42;;;7.35;;
66870;SDS011;53780;44.998;9.926;2023-03-23T02:40:12;17.67;;;8.75;;
66870;SDS011;53780;44.998;9.926;2023-03-23T02:43:22;21.83;;;10.60;;
66870;SDS011;53780;44.998;9.926;2023-03-23T02:46:30;23.45;;;10.98;;
66870;SDS011;53780;44.998;9.926;2023-03-23T02:49:35;25.63;;;11.73;;
66870;SDS011;53780;44.998;9.926;2023-03-23T02:52:41;22.75;;;11.15;;
66870;SDS011;53780;44.998;9.926;2023-03-23T02:55:47;25.42;;;12.10;;
66870;SDS011;53780;44.998;9.926;2023-03-23T02:58:57;27.47;;;12.83;;
66870;SDS011;53780;44.998;9.926;2023-03-23T03:08:45;29.85;;;14.70;;
66870;SDS011;53780;44.998;9.926;2023-03-23T03:11:56;29.88;;;13.88;;
66870;SDS011;53780;44.998;9.926;2023-03-23T03:21:43;27.40;;;12.40;;
66870;SDS011;53780;44.998;9.926;2023-03-23T03:24:50;26.63;;;12.77;;
66870;SDS011;53780;44.998;9.926;2023-03-23T03:27:55;25.13;;;11.70;;
66870;SDS011;53780;44.998;9.926;2023-03-23T03:31:16;25.37;;;11.97;;
66870;SDS011;53780;44.998;9.926;2023-03-23T03:34:22;21.73;;;10.82;;
66870;SDS011;53780;44.998;9.926;2023-03-23T03:37:32;20.98;;;9.98;;
66870;SDS011;53780;44.998;9.926;2023-03-23T03:40:40;19.27;;;8.40;;
66870;SDS011;53780;44.998;9.926;2023-03-23T03:43:47;14.25;;;6.57;;
66870;SDS011;53780;44.998;9.926;2023-03-23T03:46:51;10.37;;;5.23;;
66870;SDS011;53780;44.998;9.926;2023-03-23T03:49:55;10.15;;;4.80;;
66870;SDS011;53780;44.998;9.926;2023-03-23T03:52:58;11.73;;;5.30;;
66870;SDS011;53780;44.998;9.926;2023-03-23T03:56:03;11.52;;;5.35;;
66870;SDS011;53780;44.998;9.926;2023-03-23T03:59:19;11.23;;;4.75;;
66870;SDS011;53780;44.998;9.926;2023-03-23T04:02:35;10.70;;;4.20;;
66870;SDS011;53780;44.998;9.926;2023-03-23T04:05:39;10.05;;;4.20;;
66870;SDS011;53780;44.998;9.926;2023-03-23T04:08:44;9.02;;;4.07;;
66870;SDS011;53780;44.998;9.926;2023-03-23T04:11:48;8.63;;;3.80;;
66870;SDS011;53780;44.998;9.926;2023-03-23T04:15:10;8.27;;;3.78;;
66870;SDS011;53780;44.998;9.926;2023-03-23T04:18:14;8.07;;;3.73;;
66870;SDS011;53780;44.998;9.926;2023-03-23T04:21:21;10.25;;;3.40;;
66870;SDS011;53780;44.998;9.926;2023-03-23T04:24:26;8.38;;;3.67;;
66870;SDS011;53780;44.998;9.926;2023-03-23T04:27:32;8.15;;;3.75;;
66870;SDS011;53780;44.998;9.926;2023-03-23T04:30:39;6.85;;;3.08;;
66870;SDS011;53780;44.998;9.926;2023-03-23T04:33:48;6.40;;;2.67;;
66870;SDS011;53780;44.998;9.926;2023-03-23T04:36:57;7.43;;;3.22;;
66870;SDS011;53780;44.998;9.926;2023-03-23T04:40:05;7.57;;;3.08;;
66870;SDS011;53780;44.998;9.926;2023-03-23T04:43:11;6.50;;;2.70;;
66870;SDS011;53780;44.998;9.926;2023-03-23T04:46:50;6.82;;;2.97;;
66870;SDS011;53780;44.998;9.926;2023-03-23T04:49:58;7.43;;;3.00;;
66870;SDS011;53780;44.998;9.926;2023-03-23T04:53:11;8.68;;;3.08;;
66870;SDS011;53780;44.998;9.926;2023-03-23T04:56:18;6.80;;;2.90;;
66870;SDS011;53780;44.998;9.926;2023-03-23T04:59:23;6.10;;;2.63;;
66870;SDS011;53780;44.998;9.926;2023-03-23T05:02:51;5.78;;;2.53;;
66870;SDS011;53780;44.998;9.926;2023-03-23T05:06:01;5.37;;;2.43;;
66870;SDS011;53780;44.998;9.926;2023-03-23T05:09:08;5.30;;;2.08;;
66870;SDS011;53780;44.998;9.926;2023-03-23T05:12:11;6.07;;;2.40;;
66870;SDS011;53780;44.998;9.926;2023-03-23T05:15:37;5.13;;;2.20;;
66870;SDS011;53780;44.998;9.926;2023-03-23T05:18:43;5.30;;;2.25;;
66870;SDS011;53780;44.998;9.926;2023-03-23T05:21:52;6.23;;;2.50;;
66870;SDS011;53780;44.998;9.926;2023-03-23T05:25:00;5.80;;;2.30;;
66870;SDS011;53780;44.998;9.926;2023-03-23T05:28:11;5.75;;;2.20;;
66870;SDS011;53780;44.998;9.926;2023-03-23T05:31:42;10.10;;;2.92;;
66870;SDS011;53780;44.998;9.926;2023-03-23T05:34:45;7.78;;;2.78;;
66870;SDS011;53780;44.998;9.926;2023-03-23T05:37:50;6.17;;;2.50;;
66870;SDS011;53780;44.998;9.926;2023-03-23T05:41:00;6.38;;;2.40;;
66870;SDS011;53780;44.998;9.926;2023-03-23T05:44:10;6.55;;;2.70;;
66870;SDS011;53780;44.998;9.926;2023-03-23T05:47:29;5.88;;;2.30;;
66870;SDS011;53780;44.998;9.926;2023-03-23T05:50:40;5.68;;;2.00;;
66870;SDS011;53780;44.998;9.926;2023-03-23T05:53:45;6.03;;;2.10;;
66870;SDS011;53780;44.998;9.926;2023-03-23T05:56:52;6.60;;;2.25;;
66870;SDS011;53780;44.998;9.926;2023-03-23T06:00:10;6.50;;;2.53;;
66870;SDS011;53780;44.998;9.926;2023-03-23T06:03:19;7.15;;;2.60;;
66870;SDS011;53780;44.998;9.926;2023-03-23T06:06:44;7.13;;;2.80;;
66870;SDS011;53780;44.998;9.926;2023-03-23T06:09:49;9.33;;;2.90;;
66870;SDS011;53780;44.998;9.926;2023-03-23T06:13:00;7.20;;;2.60;;
66870;SDS011;53780;44.998;9.926;2023-03-23T06:16:34;7.10;;;2.60;;
66870;SDS011;53780;44.998;9.926;2023-03-23T06:19:44;7.88;;;2.72;;
66870;SDS011;53780;44.998;9.926;2023-03-23T06:22:54;8.00;;;2.60;;
66870;SDS011;53780;44.998;9.926;2023-03-23T06:26:10;6.23;;;2.70;;
66870;SDS011;53780;44.998;9.926;2023-03-23T06:29:18;6.40;;;2.58;;
66870;SDS011;53780;44.998;9.926;2023-03-23T06:32:26;7.05;;;2.40;;
66870;SDS011;53780;44.998;9.926;2023-03-23T06:35:31;4.82;;;2.28;;
66870;SDS011;53780;44.998;9.926;2023-03-23T06:38:35;7.47;;;2.55;;
66870;SDS011;53780;44.998;9.926;2023-03-23T06:41:40;6.77;;;2.40;;
66870;SDS011;53780;44.998;9.926;2023-03-23T06:44:45;6.13;;;2.60;;
66870;SDS011;53780;44.998;9.926;2023-03-23T06:47:51;6.53;;;3.03;;
66870;SDS011;53780;44.998;9.926;2023-03-23T06:50:55;7.50;;;2.97;;
66870;SDS011;53780;44.998;9.926;2023-03-23T06:54:03;8.02;;;2.60;;
66870;SDS011;53780;44.998;9.926;2023-03-23T06:57:12;6.37;;;3.07;;
66870;SDS011;53780;44.998;9.926;2023-03-23T07:00:17;7.95;;;3.08;;
66870;SDS011;53780;44.998;9.926;2023-03-23T07:03:21;7.82;;;3.30;;
66870;SDS011;53780;44.998;9.926;2023-03-23T07:06:26;6.68;;;3.25;;
66870;SDS011;53780;44.998;9.926;2023-03-23T07:09:35;8.90;;;3.17;;
66870;SDS011;53780;44.998;9.926;2023-03-23T07:12:39;6.43;;;3.37;;
66870;SDS011;53780;44.998;9.926;2023-03-23T07:15:46;7.90;;;3.67;;
66870;SDS011;53780;44.998;9.926;2023-03-23T07:18:52;9.18;;;3.78;;
66870;SDS011;53780;44.998;9.926;2023-03-23T07:21:57;5.97;;;3.70;;
66870;SDS011;53780;44.998;9.926;2023-03-23T07:25:01;7.57;;;4.30;;
66870;SDS011;53780;44.998;9.926;2023-03-23T07:28:19;7.77;;;4.60;;
66870;SDS011;53780;44.998;9.926;2023-03-23T07:31:24;8.50;;;5.28;;
66870;SDS011;53780;44.998;9.926;2023-03-23T07:34:28;9.35;;;5.18;;
66870;SDS011;53780;44.998;9.926;2023-03-23T07:37:55;11.27;;;6.63;;
66870;SDS011;53780;44.998;9.926;2023-03-23T07:40:59;8.55;;;6.05;;
66870;SDS011;53780;44.998;9.926;2023-03-23T07:44:08;8.97;;;5.80;;
66870;SDS011;53780;44.998;9.926;2023-03-23T07:47:13;11.65;;;6.47;;
66870;SDS011;53780;44.998;9.926;2023-03-23T07:50:18;11.23;;;7.38;;
66870;SDS011;53780;44.998;9.926;2023-03-23T07:53:26;12.57;;;7.65;;
66870;SDS011;53780;44.998;9.926;2023-03-23T07:56:37;15.68;;;9.07;;
66870;SDS011;53780;44.998;9.926;2023-03-23T07:59:50;12.70;;;8.33;;
66870;SDS011;53780;44.998;9.926;2023-03-23T08:02:56;12.65;;;8.23;;
66870;SDS011;53780;44.998;9.926;2023-03-23T08:06:09;12.18;;;7.68;;
66870;SDS011;53780;44.998;9.926;2023-03-23T08:09:31;13.55;;;8.02;;
66870;SDS011;53780;44.998;9.926;2023-03-23T08:12:52;13.63;;;8.27;;
66870;SDS011;53780;44.998;9.926;2023-03-23T08:16:32;14.10;;;8.73;;
66870;SDS011;53780;44.998;9.926;2023-03-23T08:19:40;13.73;;;8.68;;
66870;SDS011;53780;44.998;9.926;2023-03-23T08:23:22;13.23;;;9.25;;
66870;SDS011;53780;44.998;9.926;2023-03-23T08:26:47;13.38;;;9.00;;
66870;SDS011;53780;44.998;9.926;2023-03-23T08:30:00;13.52;;;9.20;;
66870;SDS011;53780;44.998;9.926;2023-03-23T08:33:26;12.73;;;8.57;;
66870;SDS011;53780;44.998;9.926;2023-03-23T08:36:32;15.68;;;9.85;;
66870;SDS011;53780;44.998;9.926;2023-03-23T08:40:09;17.23;;;9.85;;
66870;SDS011;53780;44.998;9.926;2023-03-23T08:43:17;13.52;;;8.95;;
66870;SDS011;53780;44.998;9.926;2023-03-23T08:46:44;12.50;;;9.07;;
66870;SDS011;53780;44.998;9.926;2023-03-23T08:50:15;13.27;;;8.73;;
66870;SDS011;53780;44.998;9.926;2023-03-23T08:53:21;11.90;;;8.57;;
66870;SDS011;53780;44.998;9.926;2023-03-23T08:56:25;12.20;;;8.27;;
66870;SDS011;53780;44.998;9.926;2023-03-23T08:59:52;12.23;;;8.18;;
66870;SDS011;53780;44.998;9.926;2023-03-23T09:03:22;14.13;;;8.82;;
66870;SDS011;53780;44.998;9.926;2023-03-23T09:06:37;12.80;;;8.17;;
66870;SDS011;53780;44.998;9.926;2023-03-23T09:09:41;14.13;;;8.90;;
66870;SDS011;53780;44.998;9.926;2023-03-23T09:12:48;11.25;;;9.05;;
66870;SDS011;53780;44.998;9.926;2023-03-23T09:15:52;16.50;;;9.80;;
66870;SDS011;53780;44.998;9.926;2023-03-23T09:18:56;15.15;;;10.50;;
66870;SDS011;53780;44.998;9.926;2023-03-23T09:22:00;13.60;;;9.67;;
66870;SDS011;53780;44.998;9.926;2023-03-23T09:25:05;14.07;;;10.50;;
66870;SDS011;53780;44.998;9.926;2023-03-23T09:28:10;15.27;;;10.10;;
66870;SDS011;53780;44.998;9.926;2023-03-23T09:31:14;12.43;;;9.02;;
66870;SDS011;53780;44.998;9.926;2023-03-23T09:34:19;12.82;;;8.98;;
66870;SDS011;53780;44.998;9.926;2023-03-23T09:37:23;14.10;;;9.87;;
66870;SDS011;53780;44.998;9.926;2023-03-23T09:40:37;10.75;;;8.55;;
66870;SDS011;53780;44.998;9.926;2023-03-23T09:47:01;14.10;;;10.20;;
66870;SDS011;53780;44.998;9.926;2023-03-23T09:53:15;12.00;;;9.80;;
66870;SDS011;53780;44.998;9.926;2023-03-23T09:56:41;13.40;;;10.23;;
66870;SDS011;53780;44.998;9.926;2023-03-23T09:59:51;12.77;;;9.73;;
66870;SDS011;53780;44.998;9.926;2023-03-23T10:06:24;11.88;;;9.00;;
66870;SDS011;53780;44.998;9.926;2023-03-23T10:09:28;14.00;;;9.10;;
66870;SDS011;53780;44.998;9.926;2023-03-23T10:15:58;10.35;;;7.25;;
66870;SDS011;53780;44.998;9.926;2023-03-23T10:22:16;12.38;;;8.10;;
66870;SDS011;53780;44.998;9.926;2023-03-23T10:25:26;11.63;;;6.37;;
66870;SDS011;53780;44.998;9.926;2023-03-23T10:28:36;12.02;;;6.90;;
66870;SDS011;53780;44.998;9.926;2023-03-23T10:31:44;8.43;;;4.90;;
66870;SDS011;53780;44.998;9.926;2023-03-23T10:34:56;8.57;;;6.00;;
66870;SDS011;53780;44.998;9.926;2023-03-23T10:38:08;12.38;;;7.22;;
66870;SDS011;53780;44.998;9.926;2023-03-23T10:41:17;12.20;;;7.17;;
66870;SDS011;53780;44.998;9.926;2023-03-23T10:44:24;13.32;;;8.52;;
66870;SDS011;53780;44.998;9.926;2023-03-23T10:47:31;15.50;;;9.02;;
66870;SDS011;53780;44.998;9.926;2023-03-23T10:50:36;12.90;;;8.20;;
66870;SDS011;53780;44.998;9.926;2023-03-23T10:53:50;13.07;;;8.05;;
66870;SDS011;53780;44.998;9.926;2023-03-23T10:56:59;12.37;;;7.20;;
66870;SDS011;53780;44.998;9.926;2023-03-23T11:06:23;12.93;;;6.63;;
66870;SDS011;53780;44.998;9.926;2023-03-23T11:09:37;13.55;;;7.30;;
66870;SDS011;53780;44.998;9.926;2023-03-23T11:12:58;16.60;;;6.97;;
66870;SDS011;53780;44.998;9.926;2023-03-23T11:16:04;13.00;;;7.50;;
66870;SDS011;53780;44.998;9.926;2023-03-23T11:19:21;15.40;;;8.98;;
66870;SDS011;53780;44.998;9.926;2023-03-23T11:22:29;14.40;;;8.18;;
66870;SDS011;53780;44.998;9.926;2023-03-23T11:25:49;15.32;;;8.40;;
66870;SDS011;53780;44.998;9.926;2023-03-23T11:29:09;15.03;;;7.23;;
66870;SDS011;53780;44.998;9.926;2023-03-23T11:32:17;11.80;;;6.80;;
66870;SDS011;53780;44.998;9.926;2023-03-23T11:35:23;14.02;;;7.55;;
66870;SDS011;53780;44.998;9.926;2023-03-23T11:38:30;14.70;;;8.02;;
66870;SDS011;53780;44.998;9.926;2023-03-23T11:41:37;14.65;;;7.03;;
66870;SDS011;53780;44.998;9.926;2023-03-23T11:44:42;12.90;;;7.03;;
66870;SDS011;53780;44.998;9.926;2023-03-23T11:54:46;14.48;;;7.47;;
66870;SDS011;53780;44.998;9.926;2023-03-23T11:58:00;14.35;;;7.00;;
66870;SDS011;53780;44.998;9.926;2023-03-23T12:08:35;15.55;;;8.25;;
66870;SDS011;53780;44.998;9.926;2023-03-23T12:15:00;13.13;;;8.18;;
66870;SDS011;53780;44.998;9.926;2023-03-23T12:25:23;11.88;;;6.68;;
66870;SDS011;53780;44.998;9.926;2023-03-23T12:28:54;13.65;;;7.18;;
66870;SDS011;53780;44.998;9.926;2023-03-23T12:32:17;13.70;;;7.38;;
66870;SDS011;53780;44.998;9.926;2023-03-23T12:42:11;13.27;;;7.03;;
66870;SDS011;53780;44.998;9.926;2023-03-23T12:49:14;13.00;;;6.55;;
66870;SDS011;53780;44.998;9.926;2023-03-23T12:52:32;13.03;;;7.30;;
66870;SDS011;53780;44.998;9.926;2023-03-23T13:06:05;13.68;;;6.75;;
66870;SDS011;53780;44.998;9.926;2023-03-23T13:09:43;13.77;;;7.70;;
66870;SDS011;53780;44.998;9.926;2023-03-23T13:13:14;15.85;;;8.25;;
66870;SDS011;53780;44.998;9.926;2023-03-23T13:26:23;14.13;;;6.67;;
66870;SDS011;53780;44.998;9.926;2023-03-23T13:29:32;11.60;;;6.35;;
66870;SDS011;53780;44.998;9.926;2023-03-23T13:32:38;16.02;;;7.07;;
66870;SDS011;53780;44.998;9.926;2023-03-23T13:35:44;14.80;;;6.68;;
66870;SDS011;53780;44.998;9.926;2023-03-23T13:38:49;42.10;;;14.77;;
66870;SDS011;53780;44.998;9.926;2023-03-23T13:48:39;15.27;;;6.90;;
66870;SDS011;53780;44.998;9.926;2023-03-23T13:51:59;14.45;;;6.70;;
66870;SDS011;53780;44.998;9.926;2023-03-23T13:58:31;12.13;;;6.07;;
66870;SDS011;53780;44.998;9.926;2023-03-23T14:01:36;12.75;;;6.53;;
66870;SDS011;53780;44.998;9.926;2023-03-23T14:04:42;13.73;;;6.88;;
66870;SDS011;53780;44.998;9.926;2023-03-23T14:07:57;12.60;;;6.50;;
66870;SDS011;53780;44.998;9.926;2023-03-23T14:14:23;13.17;;;6.57;;
66870;SDS011;53780;44.998;9.926;2023-03-23T14:17:33;12.90;;;6.35;;
66870;SDS011;53780;44.998;9.926;2023-03-23T14:20:45;21.10;;;10.32;;
66870;SDS011;53780;44.998;9.926;2023-03-23T14:23:50;15.02;;;8.07;;
66870;SDS011;53780;44.998;9.926;2023-03-23T14:30:16;12.80;;;6.90;;
66870;SDS011;53780;44.998;9.926;2023-03-23T14:33:22;15.98;;;7.30;;
66870;SDS011;53780;44.998;9.926;2023-03-23T14:36:29;14.30;;;7.28;;
66870;SDS011;53780;44.998;9.926;2023-03-23T14:39:35;15.32;;;7.80;;
66870;SDS011;53780;44.998;9.926;2023-03-23T14:42:40;16.02;;;7.68;;
66870;SDS011;53780;44.998;9.926;2023-03-23T14:45:47;18.27;;;7.60;;
66870;SDS011;53780;44.998;9.926;2023-03-23T14:48:54;13.65;;;6.40;;
66870;SDS011;53780;44.998;9.926;2023-03-23T14:52:01;14.07;;;6.95;;
66870;SDS011;53780;44.998;9.926;2023-03-23T14:55:12;15.98;;;7.45;;
66870;SDS011;53780;44.998;9.926;2023-03-23T14:58:26;15.55;;;7.68;;
66870;SDS011;53780;44.998;9.926;2023-03-23T15:01:30;13.63;;;6.50;;
66870;SDS011;53780;44.998;9.926;2023-03-23T15:04:35;16.33;;;7.32;;
66870;SDS011;53780;44.998;9.926;2023-03-23T15:07:40;12.50;;;5.95;;
66870;SDS011;53780;44.998;9.926;2023-03-23T15:10:55;13.27;;;6.40;;
66870;SDS011;53780;44.998;9.926;2023-03-23T15:14:34;12.88;;;6.70;;
66870;SDS011;53780;44.998;9.926;2023-03-23T15:17:50;14.70;;;6.57;;
66870;SDS011;53780;44.998;9.926;2023-03-23T15:20:55;14.32;;;6.40;;
66870;SDS011;53780;44.998;9.926;2023-03-23T15:23:59;15.70;;;6.78;;
66870;SDS011;53780;44.998;9.926;2023-03-23T15:33:20;15.00;;;6.73;;
66870;SDS011;53780;44.998;9.926;2023-03-23T15:36:31;14.95;;;6.60;;
66870;SDS011;53780;44.998;9.926;2023-03-23T15:39:40;14.20;;;6.30;;
66870;SDS011;53780;44.998;9.926;2023-03-23T15:42:45;15.10;;;6.20;;
66870;SDS011;53780;44.998;9.926;2023-03-23T15:45:53;12.80;;;5.78;;
66870;SDS011;53780;44.998;9.926;2023-03-23T15:49:10;14.87;;;6.00;;
66870;SDS011;53780;44.998;9.926;2023-03-23T15:52:17;15.23;;;6.22;;
66870;SDS011;53780;44.998;9.926;2023-03-23T15:55:22;14.38;;;6.20;;
66870;SDS011;53780;44.998;9.926;2023-03-23T15:58:38;15.35;;;6.78;;
66870;SDS011;53780;44.998;9.926;2023-03-23T16:01:43;14.48;;;6.68;;
66870;SDS011;53780;44.998;9.926;2023-03-23T16:04:48;13.53;;;5.57;;
66870;SDS011;53780;44.998;9.926;2023-03-23T16:07:53;10.45;;;4.65;;
66870;SDS011;53780;44.998;9.926;2023-03-23T16:10:57;12.45;;;5.22;;
66870;SDS011;53780;44.998;9.926;2023-03-23T16:14:02;12.77;;;5.10;;
66870;SDS011;53780;44.998;9.926;2023-03-23T16:17:09;13.02;;;5.30;;
66870;SDS011;53780;44.998;9.926;2023-03-23T16:20:20;14.03;;;5.80;;
66870;SDS011;53780;44.998;9.926;2023-03-23T16:23:25;12.68;;;5.65;;
66870;SDS011;53780;44.998;9.926;2023-03-23T16:26:30;13.45;;;5.47;;
66870;SDS011;53780;44.998;9.926;2023-03-23T16:29:34;14.20;;;5.78;;
66870;SDS011;53780;44.998;9.926;2023-03-23T16:32:39;16.23;;;6.25;;
66870;SDS011;53780;44.998;9.926;2023-03-23T16:35:43;14.23;;;5.40;;
66870;SDS011;53780;44.998;9.926;2023-03-23T16:38:47;16.98;;;6.75;;
66870;SDS011;53780;44.998;9.926;2023-03-23T16:41:51;12.70;;;5.82;;
66870;SDS011;53780;44.998;9.926;2023-03-23T16:44:55;14.38;;;6.60;;
66870;SDS011;53780;44.998;9.926;2023-03-23T16:47:59;16.25;;;6.93;;
66870;SDS011;53780;44.998;9.926;2023-03-23T16:51:03;35.37;;;16.63;;
66870;SDS011;53780;44.998;9.926;2023-03-23T16:54:07;22.73;;;10.13;;
66870;SDS011;53780;44.998;9.926;2023-03-23T16:57:12;26.48;;;14.02;;
66870;SDS011;53780;44.998;9.926;2023-03-23T17:00:16;22.85;;;12.07;;
66870;SDS011;53780;44.998;9.926;2023-03-23T17:03:24;18.27;;;9.68;;
66870;SDS011;53780;44.998;9.926;2023-03-23T17:06:28;31.77;;;17.67;;
66870;SDS011;53780;44.998;9.926;2023-03-23T17:09:32;54.38;;;28.23;;
66870;SDS011;53780;44.998;9.926;2023-03-23T17:12:36;40.45;;;22.40;;
66870;SDS011;53780;44.998;9.926;2023-03-23T17:15:41;28.55;;;16.83;;
66870;SDS011;53780;44.998;9.926;2023-03-23T17:18:45;50.00;;;31.05;;
66870;SDS011;53780;44.998;9.926;2023-03-23T17:21:49;25.77;;;13.60;;
66870;SDS011;53780;44.998;9.926;2023-03-23T17:24:53;21.45;;;9.95;;
66870;SDS011;53780;44.998;9.926;2023-03-23T17:28:00;17.75;;;8.60;;
66870;SDS011;53780;44.998;9.926;2023-03-23T17:31:06;22.50;;;10.10;;
66870;SDS011;53780;44.998;9.926;2023-03-23T17:34:09;20.40;;;9.30;;
66870;SDS011;53780;44.998;9.926;2023-03-23T17:37:13;23.93;;;11.20;;
66870;SDS011;53780;44.998;9.926;2023-03-23T17:40:18;19.75;;;9.23;;
66870;SDS011;53780;44.998;9.926;2023-03-23T17:43:22;23.50;;;9.55;;
66870;SDS011;53780;44.998;9.926;2023-03-23T17:46:26;22.15;;;9.23;;
66870;SDS011;53780;44.998;9.926;2023-03-23T17:49:30;20.92;;;8.32;;
66870;SDS011;53780;44.998;9.926;2023-03-23T17:52:35;18.03;;;7.80;;
66870;SDS011;53780;44.998;9.926;2023-03-23T17:55:39;20.35;;;7.82;;
66870;SDS011;53780;44.998;9.926;2023-03-23T17:58:45;17.23;;;7.22;;
66870;SDS011;53780;44.998;9.926;2023-03-23T18:01:49;18.33;;;7.80;;
66870;SDS011;53780;44.998;9.926;2023-03-23T18:04:55;16.88;;;7.70;;
66870;SDS011;53780;44.998;9.926;2023-03-23T18:08:02;15.40;;;7.20;;
66870;SDS011;53780;44.998;9.926;2023-03-23T18:11:06;14.77;;;6.88;;
66870;SDS011;53780;44.998;9.926;2023-03-23T18:14:11;15.65;;;6.95;;
66870;SDS011;53780;44.998;9.926;2023-03-23T18:17:14;18.33;;;7.60;;
66870;SDS011;53780;44.998;9.926;2023-03-23T18:20:18;21.15;;;8.38;;
66870;SDS011;53780;44.998;9.926;2023-03-23T18:23:22;20.10;;;7.70;;
66870;SDS011;53780;44.998;9.926;2023-03-23T18:26:26;48.33;;;9.60;;
66870;SDS011;53780;44.998;9.926;2023-03-23T18:29:32;26.17;;;10.55;;
66870;SDS011;53780;44.998;9.926;2023-03-23T18:32:37;43.20;;;15.32;;
66870;SDS011;53780;44.998;9.926;2023-03-23T18:35:42;44.42;;;16.85;;
66870;SDS011;53780;44.998;9.926;2023-03-23T18:38:46;47.37;;;16.60;;
66870;SDS011;53780;44.998;9.926;2023-03-23T18:41:51;39.13;;;15.65;;
66870;SDS011;53780;44.998;9.926;2023-03-23T18:44:55;38.70;;;14.90;;
66870;SDS011;53780;44.998;9.926;2023-03-23T18:48:02;29.70;;;12.15;;
66870;SDS011;53780;44.998;9.926;2023-03-23T18:51:07;32.22;;;12.85;;
66870;SDS011;53780;44.998;9.926;2023-03-23T18:54:11;49.73;;;18.60;;
66870;SDS011;53780;44.998;9.926;2023-03-23T18:57:15;41.28;;;14.82;;
66870;SDS011;53780;44.998;9.926;2023-03-23T19:00:20;32.25;;;10.70;;
66870;SDS011;53780;44.998;9.926;2023-03-23T19:03:24;21.85;;;8.32;;
66870;SDS011;53780;44.998;9.926;2023-03-23T19:06:28;14.70;;;6.40;;
66870;SDS011;53780;44.998;9.926;2023-03-23T19:09:33;12.97;;;4.87;;
66870;SDS011;53780;44.998;9.926;2023-03-23T19:12:37;9.82;;;4.85;;
66870;SDS011;53780;44.998;9.926;2023-03-23T19:15:41;9.27;;;4.80;;
66870;SDS011;53780;44.998;9.926;2023-03-23T19:18:45;7.85;;;4.20;;
66870;SDS011;53780;44.998;9.926;2023-03-23T19:21:49;9.05;;;4.20;;
66870;SDS011;53780;44.998;9.926;2023-03-23T19:24:53;8.93;;;4.50;;
66870;SDS011;53780;44.998;9.926;2023-03-23T19:27:57;9.65;;;4.75;;
66870;SDS011;53780;44.998;9.926;2023-03-23T19:31:01;12.05;;;4.82;;
66870;SDS011;53780;44.998;9.926;2023-03-23T19:34:05;10.25;;;4.30;;
66870;SDS011;53780;44.998;9.926;2023-03-23T19:37:09;11.57;;;4.80;;
66870;SDS011;53780;44.998;9.926;2023-03-23T19:40:13;10.10;;;4.40;;
66870;SDS011;53780;44.998;9.926;2023-03-23T19:43:17;13.70;;;4.72;;
66870;SDS011;53780;44.998;9.926;2023-03-23T19:46:22;9.85;;;4.88;;
66870;SDS011;53780;44.998;9.926;2023-03-23T19:49:26;10.25;;;4.80;;
66870;SDS011;53780;44.998;9.926;2023-03-23T19:52:30;8.35;;;4.50;;
66870;SDS011;53780;44.998;9.926;2023-03-23T19:55:34;8.13;;;4.60;;
66870;SDS011;53780;44.998;9.926;2023-03-23T19:58:39;9.00;;;4.57;;
66870;SDS011;53780;44.998;9.926;2023-03-23T20:01:43;10.20;;;4.90;;
66870;SDS011;53780;44.998;9.926;2023-03-23T20:04:47;9.35;;;4.55;;
66870;SDS011;53780;44.998;9.926;2023-03-23T20:07:52;9.60;;;5.50;;
66870;SDS011;53780;44.998;9.926;2023-03-23T20:11:03;10.53;;;5.17;;
66870;SDS011;53780;44.998;9.926;2023-03-23T20:14:08;9.52;;;4.70;;
66870;SDS011;53780;44.998;9.926;2023-03-23T20:17:12;8.98;;;4.60;;
66870;SDS011;53780;44.998;9.926;2023-03-23T20:20:17;11.23;;;5.03;;
66870;SDS011;53780;44.998;9.926;2023-03-23T20:23:21;15.43;;;7.18;;
66870;SDS011;53780;44.998;9.926;2023-03-23T20:26:26;22.77;;;9.33;;
66870;SDS011;53780;44.998;9.926;2023-03-23T20:29:32;19.15;;;8.75;;
66870;SDS011;53780;44.998;9.926;2023-03-23T20:32:37;21.20;;;8.50;;
66870;SDS011;53780;44.998;9.926;2023-03-23T20:35:43;24.92;;;10.88;;
66870;SDS011;53780;44.998;9.926;2023-03-23T20:38:47;26.55;;;10.45;;
66870;SDS011;53780;44.998;9.926;2023-03-23T20:41:51;30.53;;;11.80;;
66870;SDS011;53780;44.998;9.926;2023-03-23T20:45:01;30.83;;;12.88;;
66870;SDS011;53780;44.998;9.926;2023-03-23T20:48:07;23.67;;;10.15;;
66870;SDS011;53780;44.998;9.926;2023-03-23T20:51:11;13.25;;;6.65;;
66870;SDS011;53780;44.998;9.926;2023-03-23T20:54:16;15.38;;;7.10;;